createdAt,value
2023-04-11T00:00:58.693Z,45.72
2023-04-11T00:06:05.598Z,45.90
2023-04-11T00:11:09.018Z,48.33
2023-04-11T00:16:12.653Z,46.30
2023-04-11T00:21:17.816Z,43.75
2023-04-11T00:26:22.404Z,47.30
2023-04-11T00:31:25.907Z,46.40
2023-04-11T00:36:32.022Z,47.03
2023-04-11T00:41:35.757Z,45.28
2023-04-11T00:46:43.165Z,45.60
2023-04-11T00:51:49.311Z,47.20
2023-04-11T00:56:53.363Z,48.63
2023-04-11T01:01:57.158Z,44.65
2023-04-11T01:07:06.544Z,45.20
2023-04-11T01:12:11.640Z,46.20
2023-04-11T01:17:15.389Z,44.25
2023-04-11T01:22:23.871Z,48.33
2023-04-11T01:27:31.060Z,44.75
2023-04-11T01:32:34.672Z,46.90
2023-04-11T01:37:38.343Z,46.80
2023-04-11T01:42:43.260Z,42.58
2023-04-11T01:47:47.940Z,42.10
2023-04-11T01:52:53.705Z,46.63
2023-04-11T01:57:58.409Z,44.15
2023-04-11T02:03:02.105Z,44.58
2023-04-11T02:08:06.210Z,46.72
2023-04-11T02:13:10.941Z,45.00
2023-04-11T02:18:14.635Z,41.58
2023-04-11T02:23:18.046Z,44.92
2023-04-11T02:28:23.465Z,43.80
2023-04-11T02:33:27.112Z,41.45
2023-04-11T02:38:30.865Z,41.63
2023-04-11T02:43:35.631Z,43.28
2023-04-11T02:48:39.245Z,40.85
2023-04-11T02:53:42.914Z,42.03
2023-04-11T02:58:47.687Z,43.33
2023-04-11T03:03:51.317Z,45.42
2023-04-11T03:08:56.052Z,39.67
2023-04-11T03:14:01.452Z,37.72
2023-04-11T03:19:05.965Z,38.47
2023-04-11T03:24:09.829Z,45.15
2023-04-11T03:29:14.981Z,42.78
2023-04-11T03:34:19.049Z,39.13
2023-04-11T03:39:22.819Z,41.42
2023-04-11T03:44:27.559Z,44.40
2023-04-11T03:49:31.063Z,43.88
2023-04-11T03:54:34.612Z,49.70
2023-04-11T03:59:39.639Z,46.40
2023-04-11T04:04:43.513Z,47.20
2023-04-11T04:09:47.449Z,44.50
2023-04-11T04:14:53.076Z,47.05
2023-04-11T04:19:56.467Z,44.88
2023-04-11T04:24:59.827Z,41.88
2023-04-11T04:30:04.897Z,42.95
2023-04-11T04:35:09.109Z,41.20
2023-04-11T04:40:14.355Z,40.70
2023-04-11T04:45:19.154Z,40.25
2023-04-11T04:50:22.679Z,40.38
2023-04-11T04:55:27.121Z,44.53
2023-04-11T05:00:33.615Z,37.83
2023-04-11T05:05:37.053Z,41.67
2023-04-11T05:10:40.819Z,43.35
2023-04-11T05:15:50.231Z,44.83
2023-04-11T05:20:53.684Z,40.70
2023-04-11T05:25:57.078Z,40.28
2023-04-11T05:31:02.256Z,43.33
2023-04-11T05:36:06.728Z,39.05
2023-04-11T05:41:10.336Z,42.03
2023-04-11T05:46:15.139Z,42.92
2023-04-11T05:51:18.521Z,38.40
2023-04-11T05:56:22.255Z,39.45
2023-04-11T06:01:27.047Z,40.45
2023-04-11T06:06:31.593Z,44.17
2023-04-11T06:11:35.209Z,38.72
2023-04-11T06:16:40.051Z,38.55
2023-04-11T06:21:43.478Z,34.63
2023-04-11T06:26:47.152Z,35.70
2023-04-11T06:31:51.884Z,42.05
2023-04-11T06:36:55.312Z,37.83
2023-04-11T06:41:58.725Z,38.35
2023-04-11T06:47:03.605Z,40.33
2023-04-11T06:52:07.212Z,36.78
2023-04-11T06:57:11.214Z,37.53
2023-04-11T07:02:16.864Z,37.45
2023-04-11T07:07:20.763Z,39.47
2023-04-11T07:12:24.671Z,42.17
2023-04-11T07:17:29.380Z,40.42
2023-04-11T07:22:33.025Z,36.08
2023-04-11T07:27:36.749Z,39.60
2023-04-11T07:32:41.544Z,41.75
2023-04-11T07:37:45.836Z,38.80
2023-04-11T07:42:49.215Z,42.67
2023-04-11T07:47:53.996Z,37.72
2023-04-11T07:52:57.766Z,40.58
2023-04-11T07:58:01.132Z,41.53
2023-04-11T08:03:08.801Z,41.65
2023-04-11T08:08:12.490Z,40.20
2023-04-11T08:13:16.214Z,41.20
2023-04-11T08:18:21.693Z,39.67
2023-04-11T08:23:25.139Z,44.78
2023-04-11T08:28:28.611Z,49.20
2023-04-11T08:33:34.544Z,46.20
2023-04-11T08:38:38.704Z,45.80
2023-04-11T08:43:43.882Z,49.33
2023-04-11T08:48:48.877Z,43.83
2023-04-11T08:53:54.742Z,39.42
2023-04-11T08:58:58.359Z,38.78
2023-04-11T09:04:05.641Z,40.53
2023-04-11T09:09:09.743Z,41.92
2023-04-11T09:14:13.677Z,39.63
2023-04-11T09:19:26.187Z,35.75
2023-04-11T09:24:30.938Z,40.13
2023-04-11T09:29:40.307Z,35.05
2023-04-11T09:34:45.320Z,32.33
2023-04-11T09:39:59.253Z,35.38
2023-04-11T09:45:03.895Z,36.45
2023-04-11T09:50:09.508Z,33.60
2023-04-11T09:55:16.403Z,27.75
2023-04-11T10:00:22.117Z,26.13
2023-04-11T10:05:28.924Z,29.50
2023-04-11T10:10:32.666Z,27.77
2023-04-11T10:15:36.079Z,25.88
2023-04-11T10:20:46.131Z,25.20
2023-04-11T10:25:58.482Z,25.00
2023-04-11T10:31:04.594Z,22.90
2023-04-11T10:36:11.438Z,22.40
2023-04-11T10:41:31.808Z,20.25
2023-04-11T10:46:46.258Z,19.90
2023-04-11T10:51:51.041Z,17.55
2023-04-11T10:56:57.877Z,19.25
2023-04-11T11:02:02.397Z,15.10
2023-04-11T11:07:13.306Z,14.70
2023-04-11T11:12:18.020Z,15.02
2023-04-11T11:17:23.690Z,17.70
2023-04-11T11:22:28.724Z,20.92
2023-04-11T11:27:32.333Z,21.35
2023-04-11T11:32:36.241Z,21.95
2023-04-11T11:37:41.913Z,17.85
2023-04-11T11:42:45.531Z,9.25
2023-04-11T11:47:50.805Z,7.63
2023-04-11T11:52:56.674Z,5.70
2023-04-11T11:58:02.296Z,5.78
2023-04-11T12:03:06.964Z,6.78
2023-04-11T12:08:12.363Z,9.15
2023-04-11T12:13:20.669Z,7.68
2023-04-11T12:18:25.503Z,6.53
2023-04-11T12:23:30.373Z,3.85
2023-04-11T12:28:33.822Z,4.78
2023-04-11T12:33:37.492Z,4.80
2023-04-11T12:38:42.301Z,4.40
2023-04-11T12:43:45.964Z,5.65
2023-04-11T12:48:49.338Z,4.70
2023-04-11T12:53:54.144Z,8.13
2023-04-11T12:58:57.902Z,6.65
2023-04-11T13:04:01.959Z,5.35
2023-04-11T13:09:07.784Z,4.35
2023-04-11T13:14:11.672Z,5.10
2023-04-11T13:19:15.125Z,5.10
2023-04-11T13:24:20.031Z,5.53
2023-04-11T13:29:23.404Z,6.72
2023-04-11T13:34:27.279Z,7.60
2023-04-11T13:39:31.998Z,5.80
2023-04-11T13:44:35.450Z,4.70
2023-04-11T13:49:38.865Z,5.25
2023-04-11T13:54:43.607Z,3.30
2023-04-11T13:59:47.053Z,3.10
2023-04-11T14:04:51.047Z,2.45
2023-04-11T14:09:55.846Z,4.07
2023-04-11T14:14:59.259Z,3.85
2023-04-11T14:20:05.508Z,5.20
2023-04-11T14:25:11.586Z,5.10
2023-04-11T14:30:15.232Z,5.70
2023-04-11T14:35:18.611Z,5.78
2023-04-11T14:40:23.587Z,7.95
2023-04-11T14:45:27.033Z,5.18
2023-04-11T14:50:30.639Z,5.80
2023-04-11T14:55:35.409Z,5.75
2023-04-11T15:00:38.822Z,6.80
2023-04-11T15:05:42.286Z,7.60
2023-04-11T15:10:49.570Z,6.80
2023-04-11T15:15:53.529Z,7.70
2023-04-11T15:20:58.986Z,9.57
2023-04-11T15:26:04.746Z,5.95
2023-04-11T15:31:10.044Z,6.07
2023-04-11T15:36:13.592Z,5.65
2023-04-11T15:41:18.400Z,3.58
2023-04-11T15:46:22.087Z,3.50
2023-04-11T15:51:27.258Z,5.70
2023-04-11T15:56:33.290Z,4.13
2023-04-11T16:01:36.905Z,6.88
2023-04-11T16:06:40.596Z,7.93
2023-04-11T16:11:45.397Z,5.65
2023-04-11T16:16:48.842Z,6.53
2023-04-11T16:21:52.791Z,4.10
2023-04-11T16:26:58.422Z,3.58
2023-04-11T16:32:02.368Z,5.25
2023-04-11T16:37:06.508Z,3.45
2023-04-11T16:42:11.259Z,6.85
2023-04-11T16:47:14.703Z,6.20
2023-04-11T16:52:18.097Z,4.88
2023-04-11T16:57:23.085Z,7.05
2023-04-11T17:02:26.665Z,4.30
2023-04-11T17:07:30.208Z,7.20
2023-04-11T17:12:34.927Z,4.53
2023-04-11T17:17:38.352Z,5.93
2023-04-11T17:22:44.374Z,5.25
2023-04-11T17:27:49.455Z,7.70
2023-04-11T17:32:55.385Z,5.70
2023-04-11T17:37:59.142Z,7.95
2023-04-11T17:43:04.304Z,7.03
2023-04-11T17:48:08.808Z,5.43
2023-04-11T17:53:12.643Z,7.20
2023-04-11T17:58:17.896Z,5.43
2023-04-11T18:03:22.352Z,6.43
2023-04-11T18:08:46.833Z,5.68
2023-04-11T18:13:52.064Z,6.15
2023-04-11T18:18:55.505Z,4.82
2023-04-11T18:23:59.267Z,4.38
2023-04-11T18:29:04.343Z,3.85
2023-04-11T18:34:09.139Z,1.15
2023-04-11T18:39:12.845Z,2.55
2023-04-11T18:44:17.675Z,2.47
2023-04-11T18:49:21.639Z,2.97
2023-04-11T18:54:25.049Z,2.20
2023-04-11T18:59:31.410Z,2.95
2023-04-11T19:04:37.594Z,2.97
2023-04-11T19:09:41.362Z,7.22
2023-04-11T19:14:46.121Z,3.47
2023-04-11T19:19:49.814Z,4.07
2023-04-11T19:24:53.574Z,6.05
2023-04-11T19:29:58.342Z,4.70
2023-04-11T19:35:02.054Z,8.68
2023-04-11T19:40:07.526Z,6.53
2023-04-11T19:45:12.886Z,6.47
2023-04-11T19:50:16.580Z,4.07
2023-04-11T19:55:20.055Z,8.93
2023-04-11T20:00:26.655Z,9.45
2023-04-11T20:05:32.161Z,5.80
2023-04-11T20:10:37.313Z,5.57
2023-04-11T20:15:42.320Z,5.20
2023-04-11T20:20:47.043Z,7.18
2023-04-11T20:25:50.842Z,7.40
2023-04-11T20:30:55.927Z,7.75
2023-04-11T20:35:59.654Z,10.10
2023-04-11T20:41:04.014Z,7.55
2023-04-11T20:46:09.294Z,6.90
2023-04-11T20:51:14.196Z,6.40
2023-04-11T20:56:18.020Z,7.38
2023-04-11T21:01:22.782Z,5.25
2023-04-11T21:06:26.796Z,7.22
2023-04-11T21:11:30.281Z,10.23
2023-04-11T21:16:35.201Z,9.25
2023-04-11T21:21:40.392Z,7.00
2023-04-11T21:26:43.957Z,10.75
2023-04-11T21:31:48.765Z,10.73
2023-04-11T21:36:52.194Z,8.48
2023-04-11T21:41:55.588Z,9.10
2023-04-11T21:47:00.700Z,10.00
2023-04-11T21:52:04.147Z,11.77
2023-04-11T21:57:07.586Z,11.18
2023-04-11T22:02:12.491Z,9.23
2023-04-11T22:07:18.007Z,10.40
2023-04-11T22:12:21.390Z,11.98
2023-04-11T22:17:26.236Z,12.32
2023-04-11T22:22:30.210Z,11.32
2023-04-11T22:27:35.346Z,12.95
2023-04-11T22:32:40.926Z,11.98
2023-04-11T22:37:45.449Z,12.88
2023-04-11T22:42:50.584Z,9.40
2023-04-11T22:48:00.087Z,10.73
2023-04-11T22:53:03.727Z,10.00
2023-04-11T22:58:07.743Z,8.90
2023-04-11T23:03:14.377Z,10.75
2023-04-11T23:08:18.181Z,11.45
2023-04-11T23:13:22.352Z,11.32
2023-04-11T23:18:27.094Z,14.27
2023-04-11T23:23:30.538Z,9.52
2023-04-11T23:28:35.285Z,8.90
2023-04-11T23:33:41.026Z,9.88
2023-04-11T23:38:45.021Z,10.93
2023-04-11T23:43:48.483Z,7.68
2023-04-11T23:48:54.913Z,8.18
2023-04-11T23:53:58.473Z,11.07
2023-04-11T23:59:01.962Z,7.20
